Sarasota, Florida
Current Conditions -  °F | °C
As of 8:53 PM on Thursday 20 Nov 2014 (Local Time) from KSRQ Reporting Station
Clear Clear  
Wind Chill: 13°   Ceiling: Unl
Heat Index: 13°   Visibility: 10mi
Dew Point:   Wind: 8mph
Humidity: 60%   Direction: 40°NE
Pressure: 30.2"   Gusts: NA
Location:  27.34°N, 82.54°W
Report Text: KSRQ 210153Z AUTO 04007KT 10SM CLR 13/06 A3020 RMK AO2 SLP225 T01330056
Loading
Personal Weather Stations






























Interactive Weather Map New forecast layout! Learn more

10-Day Weather Forecast

Advertisements
Track Severe Weather on mobile